Time;durP1;ratioP1;P1;durP2;ratioP2;P2;SDS_P1;SDS_P2;PMS_P1;PMS_P2;Temp;Humidity;BMP_temperature;BMP_pressure;BME280_temperature;BME280_humidity;BME280_pressure;Samples;Min_cycle;Max_cycle;Signal;HPM_P1;HPM_P2
2022/01/11 00:02:13;;;;;;;38.92;12.70;;;;;;;1.62;100.00;101399.66;4951272;29;20031;-68
2022/01/11 00:04:38;;;;;;;32.00;13.20;;;;;;;1.55;100.00;101384.63;4951524;29;20051;-68
2022/01/11 00:07:06;;;;;;;34.20;13.13;;;;;;;1.66;100.00;101395.38;4955955;28;20471;-69
2022/01/11 00:09:38;;;;;;;49.45;15.93;;;;;;;1.67;100.00;101392.78;4989386;28;20151;-69
2022/01/11 00:12:08;;;;;;;34.70;12.07;;;;;;;1.73;100.00;101402.56;4971580;28;20485;-68
2022/01/11 00:14:35;;;;;;;33.63;13.25;;;;;;;1.73;100.00;101392.94;4987892;28;20475;-67
2022/01/11 00:17:01;;;;;;;40.60;17.13;;;;;;;1.78;100.00;101399.19;4989773;28;20180;-67
2022/01/11 00:19:28;;;;;;;46.22;16.08;;;;;;;1.86;100.00;101405.50;4989690;28;20049;-67
2022/01/11 00:21:54;;;;;;;23.85;15.45;;;;;;;1.88;100.00;101403.81;4972128;28;20026;-67
2022/01/11 00:24:30;;;;;;;30.05;13.43;;;;;;;1.94;100.00;101400.44;4989821;28;20450;-67
2022/01/11 00:27:04;;;;;;;27.52;10.38;;;;;;;2.06;100.00;101408.63;4989454;28;20026;-67
2022/01/11 00:29:32;;;;;;;45.90;13.23;;;;;;;2.10;100.00;101407.84;4989582;28;20145;-66
2022/01/11 00:32:04;;;;;;;27.17;13.48;;;;;;;2.12;100.00;101409.66;4988127;28;20497;-68
2022/01/11 00:34:39;;;;;;;32.45;12.40;;;;;;;2.21;100.00;101415.09;4970812;28;20517;-68
2022/01/11 00:37:06;;;;;;;28.95;11.38;;;;;;;2.24;100.00;101415.16;4989685;28;20105;-68
2022/01/11 00:39:32;;;;;;;28.60;10.90;;;;;;;2.25;100.00;101419.59;4989033;28;20151;-68
2022/01/11 00:41:57;;;;;;;28.25;10.98;;;;;;;2.27;100.00;101417.00;4972060;28;20026;-68
2022/01/11 00:44:23;;;;;;;30.92;12.23;;;;;;;2.14;100.00;101407.06;4989055;28;20036;-68
2022/01/11 00:46:49;;;;;;;23.90;12.38;;;;;;;2.14;100.00;101409.69;4981516;28;20394;-68
2022/01/11 00:49:14;;;;;;;27.15;13.15;;;;;;;2.02;100.00;101397.16;4980875;28;20061;-68
2022/01/11 00:51:40;;;;;;;30.63;12.15;;;;;;;2.17;100.00;101408.03;4989591;28;20023;-68
2022/01/11 00:54:05;;;;;;;31.10;11.15;;;;;;;2.12;100.00;101403.50;4989370;28;20422;-68
2022/01/11 00:56:30;;;;;;;34.40;12.52;;;;;;;2.17;100.00;101402.78;4988741;28;20495;-68
2022/01/11 00:58:56;;;;;;;32.75;11.60;;;;;;;2.18;100.00;101403.63;4988647;28;20069;-68
2022/01/11 01:01:21;;;;;;;38.33;12.98;;;;;;;2.06;100.00;101414.75;4972017;28;20030;-68
2022/01/11 01:03:47;;;;;;;38.08;12.10;;;;;;;1.98;100.00;101416.28;4971674;28;20045;-68
2022/01/11 01:06:13;;;;;;;40.22;10.23;;;;;;;2.06;100.00;101413.88;4971692;28;20026;-68
2022/01/11 01:08:38;;;;;;;22.58;10.43;;;;;;;2.05;100.00;101423.47;4989256;28;20084;-68
2022/01/11 01:11:04;;;;;;;36.40;10.73;;;;;;;1.89;100.00;101420.44;4989217;28;20023;-68
2022/01/11 01:13:30;;;;;;;17.98;9.55;;;;;;;1.86;100.00;101425.63;4989290;28;20034;-68
2022/01/11 01:15:56;;;;;;;27.98;12.02;;;;;;;1.72;100.00;101408.63;4989288;28;20037;-68
2022/01/11 01:18:27;;;;;;;21.13;9.35;;;;;;;1.80;100.00;101418.47;4971041;28;20036;-68
2022/01/11 01:20:54;;;;;;;32.05;10.88;;;;;;;1.71;100.00;101427.84;4990548;28;20114;-68
2022/01/11 01:23:20;;;;;;;30.25;9.70;;;;;;;1.66;100.00;101421.59;4992553;28;20037;-68
2022/01/11 01:25:47;;;;;;;19.92;9.52;;;;;;;1.65;100.00;101420.72;4993134;28;20036;-68
2022/01/11 01:28:14;;;;;;;22.33;10.13;;;;;;;1.57;100.00;101427.50;4993390;28;20371;-68
2022/01/11 01:30:40;;;;;;;21.98;11.60;;;;;;;1.50;100.00;101417.69;4992655;28;20034;-68
2022/01/11 01:33:06;;;;;;;25.25;10.25;;;;;;;1.55;100.00;101425.69;4975052;28;20498;-68
2022/01/11 01:35:39;;;;;;;24.27;11.00;;;;;;;1.54;100.00;101416.94;4974898;28;20061;-68
2022/01/11 01:38:06;;;;;;;19.58;10.15;;;;;;;1.48;100.00;101415.88;4975379;28;20038;-68
2022/01/11 01:40:37;;;;;;;43.30;23.63;;;;;;;1.60;100.00;101435.44;4992810;28;20110;-68
2022/01/11 01:43:05;;;;;;;33.78;11.88;;;;;;;1.61;100.00;101438.94;4992502;28;20490;-68
2022/01/11 01:45:31;;;;;;;27.40;10.80;;;;;;;1.64;100.00;101434.69;4992713;28;20030;-68
2022/01/11 01:47:58;;;;;;;28.77;9.85;;;;;;;1.58;100.00;101439.78;4992735;28;20113;-68
2022/01/11 01:50:27;;;;;;;21.85;10.07;;;;;;;1.50;100.00;101445.66;4991985;28;20034;-68
2022/01/11 01:52:58;;;;;;;21.45;11.30;;;;;;;1.56;100.00;101446.72;4992637;28;20081;-68
2022/01/11 01:55:25;;;;;;;18.05;10.80;;;;;;;1.66;100.00;101453.06;4992525;28;20030;-68
2022/01/11 01:57:50;;;;;;;22.33;10.18;;;;;;;1.73;100.00;101447.16;4992926;28;20034;-68
2022/01/11 02:00:20;;;;;;;28.27;10.50;;;;;;;1.57;100.00;101417.00;4993078;28;20363;-68
2022/01/11 02:02:46;;;;;;;25.90;11.82;;;;;;;1.62;100.00;101440.72;4991843;28;20026;-68
2022/01/11 02:05:12;;;;;;;21.85;10.18;;;;;;;1.68;100.00;101443.50;4992595;28;20034;-68
2022/01/11 02:07:37;;;;;;;23.33;11.65;;;;;;;1.72;100.00;101448.88;4991751;28;20061;-68
2022/01/11 02:10:05;;;;;;;23.75;11.90;;;;;;;1.72;100.00;101447.97;4992124;28;20022;-68
2022/01/11 02:12:31;;;;;;;25.30;11.25;;;;;;;1.83;100.00;101447.41;4991877;28;20125;-67
2022/01/11 02:14:57;;;;;;;24.10;10.07;;;;;;;1.82;100.00;101444.75;4992489;28;20488;-68
2022/01/11 02:17:26;;;;;;;23.25;10.77;;;;;;;1.87;100.00;101438.78;4991511;28;20427;-68
2022/01/11 02:19:56;;;;;;;22.38;10.63;;;;;;;1.93;100.00;101444.16;4991549;28;20129;-68
2022/01/11 02:22:25;;;;;;;28.85;10.77;;;;;;;1.93;100.00;101449.41;4992121;28;20145;-68
2022/01/11 02:24:51;;;;;;;34.78;11.23;;;;;;;1.86;100.00;101436.09;4992240;28;20041;-68
2022/01/11 02:27:17;;;;;;;32.55;11.38;;;;;;;1.96;100.00;101443.38;4991894;28;20038;-68
2022/01/11 02:29:43;;;;;;;29.70;9.60;;;;;;;2.01;100.00;101434.72;4991474;28;20076;-68
2022/01/11 02:32:09;;;;;;;25.75;11.63;;;;;;;1.98;100.00;101420.66;4991511;28;20100;-68
2022/01/11 02:34:35;;;;;;;21.45;10.65;;;;;;;1.98;100.00;101442.53;4991777;28;20078;-68
2022/01/11 02:37:00;;;;;;;25.75;9.40;;;;;;;1.91;100.00;101411.75;4991472;28;20038;-68
2022/01/11 02:39:25;;;;;;;18.20;10.38;;;;;;;2.03;100.00;101446.16;4990886;28;20088;-68
2022/01/11 02:41:55;;;;;;;25.67;9.93;;;;;;;2.02;100.00;101444.41;4991509;28;20088;-68
2022/01/11 02:44:21;;;;;;;25.88;10.52;;;;;;;2.04;100.00;101450.53;4991637;28;20113;-69
2022/01/11 02:46:46;;;;;;;18.85;9.55;;;;;;;2.11;100.00;101454.25;4991835;28;20022;-69
2022/01/11 02:49:12;;;;;;;31.08;11.93;;;;;;;1.98;100.00;101439.91;4990184;28;20034;-69
2022/01/11 02:51:37;;;;;;;30.50;9.93;;;;;;;2.08;100.00;101456.75;4991680;28;20026;-68
2022/01/11 02:54:05;;;;;;;43.80;10.27;;;;;;;2.04;100.00;101462.81;4991220;28;20033;-68
2022/01/11 02:56:31;;;;;;;28.15;10.73;;;;;;;1.95;100.00;101447.72;4991704;28;20026;-68
2022/01/11 02:58:57;;;;;;;26.13;11.02;;;;;;;1.98;100.00;101450.41;4990734;28;20037;-68
2022/01/11 03:01:22;;;;;;;20.52;8.93;;;;;;;2.12;100.00;101450.75;4972848;28;20030;-68
2022/01/11 03:03:48;;;;;;;19.23;10.27;;;;;;;1.90;100.00;101459.81;4991556;28;20497;-68
2022/01/11 03:06:13;;;;;;;21.58;10.48;;;;;;;1.85;100.00;101456.19;4973349;28;20479;-68
2022/01/11 03:08:44;;;;;;;17.73;9.00;;;;;;;1.78;100.00;101459.50;4991769;28;20113;-68
2022/01/11 03:11:11;;;;;;;19.20;9.32;;;;;;;1.71;100.00;101452.34;4991274;28;20026;-68
2022/01/11 03:13:38;;;;;;;22.48;10.57;;;;;;;1.82;100.00;101460.47;4991046;28;20034;-68
2022/01/11 03:16:04;;;;;;;16.58;9.00;;;;;;;1.64;100.00;101447.78;4990820;28;20850;-68
2022/01/11 03:18:30;;;;;;;18.50;9.73;;;;;;;1.63;100.00;101453.88;4972953;28;20449;-68
2022/01/11 03:20:56;;;;;;;20.33;9.88;;;;;;;1.70;100.00;101455.81;4990920;28;20368;-68
2022/01/11 03:23:22;;;;;;;28.17;10.20;;;;;;;1.60;100.00;101435.44;4990628;28;20037;-68
2022/01/11 03:25:52;;;;;;;26.90;9.35;;;;;;;1.72;100.00;101454.13;4991313;28;20022;-68
2022/01/11 03:28:19;;;;;;;24.85;10.80;;;;;;;1.72;100.00;101459.34;4990470;28;20080;-67
2022/01/11 03:30:45;;;;;;;20.25;10.13;;;;;;;1.75;100.00;101459.44;4972140;28;20076;-67
2022/01/11 03:33:11;;;;;;;22.95;9.65;;;;;;;1.72;100.00;101447.97;4990710;28;20038;-67
2022/01/11 03:35:38;;;;;;;21.02;10.10;;;;;;;1.72;100.00;101451.50;4990532;28;20036;-67
2022/01/11 03:38:05;;;;;;;26.75;10.18;;;;;;;1.83;100.00;101463.13;4990512;28;20113;-67
2022/01/11 03:40:30;;;;;;;18.42;9.13;;;;;;;1.79;100.00;101466.53;4990385;28;20054;-67
2022/01/11 03:42:56;;;;;;;25.88;10.38;;;;;;;1.72;100.00;101469.84;4989725;28;20054;-67
2022/01/11 03:45:22;;;;;;;15.00;8.55;;;;;;;1.69;100.00;101464.53;4990184;28;20081;-67
2022/01/11 03:47:49;;;;;;;21.95;10.43;;;;;;;1.54;100.00;101445.78;4990680;28;20034;-67
2022/01/11 03:50:16;;;;;;;22.52;11.10;;;;;;;1.68;100.00;101467.97;4970622;28;20038;-67
2022/01/11 03:52:43;;;;;;;24.73;9.43;;;;;;;1.70;100.00;101450.56;4971132;28;20034;-67
2022/01/11 03:55:15;;;;;;;24.58;9.65;;;;;;;1.77;100.00;101462.09;4971037;28;20046;-67
2022/01/11 03:57:41;;;;;;;22.13;11.82;;;;;;;1.75;100.00;101451.56;4953612;28;20038;-67
2022/01/11 04:00:19;;;;;;;26.30;12.80;;;;;;;1.88;100.00;101456.28;4969148;28;20026;-67
2022/01/11 04:02:44;;;;;;;51.15;19.95;;;;;;;1.94;100.00;101451.19;4970641;28;20037;-67
2022/01/11 04:05:12;;;;;;;56.60;22.02;;;;;;;2.04;100.00;101458.41;4971281;28;20022;-67
2022/01/11 04:07:38;;;;;;;25.38;14.07;;;;;;;2.02;100.00;101460.13;4970668;28;20047;-67
2022/01/11 04:10:04;;;;;;;30.33;14.25;;;;;;;2.05;100.00;101454.97;4970262;28;20077;-67
2022/01/11 04:12:30;;;;;;;62.88;26.27;;;;;;;1.99;100.00;101454.81;4969755;28;20031;-67
2022/01/11 04:14:56;;;;;;;30.55;15.45;;;;;;;2.04;100.00;101470.66;4958147;28;20497;-67
2022/01/11 04:17:21;;;;;;;22.58;10.95;;;;;;;2.08;100.00;101470.78;4989269;28;20060;-67
2022/01/11 04:19:47;;;;;;;21.20;11.90;;;;;;;2.07;100.00;101469.00;4971591;28;20141;-67
2022/01/11 04:22:13;;;;;;;23.65;11.68;;;;;;;2.22;100.00;101473.75;4989831;28;20478;-67
2022/01/11 04:24:38;;;;;;;18.05;10.18;;;;;;;2.23;100.00;101475.50;4990122;28;20126;-67
2022/01/11 04:27:04;;;;;;;21.38;10.80;;;;;;;2.14;100.00;101464.81;4990036;28;20038;-67
2022/01/11 04:29:30;;;;;;;22.00;11.35;;;;;;;2.16;100.00;101463.97;4989111;28;20030;-67
2022/01/11 04:31:55;;;;;;;30.00;12.32;;;;;;;2.18;100.00;101485.91;4989653;28;20026;-67
2022/01/11 04:34:20;;;;;;;24.92;11.32;;;;;;;2.13;100.00;101484.91;4971042;28;20036;-66
2022/01/11 04:36:46;;;;;;;22.70;11.32;;;;;;;2.11;100.00;101489.22;4989785;28;20065;-66
2022/01/11 04:39:13;;;;;;;29.67;12.98;;;;;;;2.18;100.00;101488.53;4989314;28;20073;-66
2022/01/11 04:41:40;;;;;;;29.27;12.23;;;;;;;2.19;100.00;101500.78;4989713;28;20258;-66
2022/01/11 04:44:06;;;;;;;24.38;9.75;;;;;;;2.21;100.00;101499.09;4989161;28;20030;-66
2022/01/11 04:46:32;;;;;;;24.67;11.05;;;;;;;2.06;100.00;101482.97;4988877;28;20113;-66
2022/01/11 04:48:59;;;;;;;20.50;10.35;;;;;;;2.25;100.00;101506.22;4989384;28;20148;-66
2022/01/11 04:51:25;;;;;;;22.83;9.57;;;;;;;2.28;100.00;101506.28;4989308;28;20061;-66
2022/01/11 04:53:51;;;;;;;21.88;10.20;;;;;;;2.24;100.00;101511.41;4989344;28;20406;-66
2022/01/11 04:56:17;;;;;;;24.90;10.20;;;;;;;2.23;100.00;101505.28;4989555;28;20029;-66
2022/01/11 04:58:43;;;;;;;27.63;10.13;;;;;;;2.20;100.00;101512.19;4989571;28;20497;-66
2022/01/11 05:01:08;;;;;;;18.48;9.55;;;;;;;2.27;100.00;101524.63;4989237;28;20475;-66
2022/01/11 05:03:34;;;;;;;34.95;11.27;;;;;;;2.38;100.00;101523.13;4989399;28;20034;-66
2022/01/11 05:06:00;;;;;;;32.75;11.35;;;;;;;2.33;100.00;101520.41;4988665;28;20041;-66
2022/01/11 05:08:25;;;;;;;25.25;10.75;;;;;;;2.26;100.00;101523.72;4987691;28;20046;-66
2022/01/11 05:10:51;;;;;;;21.23;11.95;;;;;;;2.30;100.00;101519.44;4989017;28;20030;-66
2022/01/11 05:13:18;;;;;;;21.52;11.27;;;;;;;2.22;100.00;101500.00;4989621;28;20042;-67
2022/01/11 05:15:44;;;;;;;38.17;11.38;;;;;;;2.34;100.00;101513.41;4988219;28;20038;-67
2022/01/11 05:18:10;;;;;;;29.95;11.05;;;;;;;2.37;100.00;101519.59;4988717;28;20030;-67
2022/01/11 05:20:37;;;;;;;27.05;12.23;;;;;;;2.44;100.00;101518.91;4988238;28;20395;-67
2022/01/11 05:23:34;;;;;;;34.65;11.68;;;;;;;2.48;100.00;101526.03;4989074;28;20034;-67
2022/01/11 05:26:00;;;;;;;20.92;10.52;;;;;;;2.45;100.00;101525.97;4970271;28;20061;-66
2022/01/11 05:28:26;;;;;;;24.85;11.48;;;;;;;2.53;100.00;101521.78;4988979;28;20033;-66
2022/01/11 05:30:51;;;;;;;25.50;12.13;;;;;;;2.39;100.00;101515.28;4988418;28;20038;-67
2022/01/11 05:33:17;;;;;;;26.60;12.27;;;;;;;2.38;100.00;101521.41;4971180;28;20026;-67
2022/01/11 05:35:42;;;;;;;38.95;13.98;;;;;;;2.40;100.00;101524.97;4971795;28;20065;-67
2022/01/11 05:38:08;;;;;;;28.75;12.18;;;;;;;2.43;100.00;101532.91;4989019;28;20108;-67
2022/01/11 05:40:33;;;;;;;22.33;9.90;;;;;;;2.43;100.00;101540.78;4988202;28;20030;-68
2022/01/11 05:42:59;;;;;;;33.38;11.80;;;;;;;2.58;100.00;101538.53;4989137;28;20081;-68
2022/01/11 05:45:25;;;;;;;26.17;15.18;;;;;;;2.58;100.00;101541.16;4971573;28;20030;-67
2022/01/11 05:47:53;;;;;;;29.27;13.30;;;;;;;2.60;100.00;101544.69;4989063;28;20262;-67
2022/01/11 05:50:20;;;;;;;30.85;11.02;;;;;;;2.72;100.00;101547.59;4988771;28;20030;-67
2022/01/11 05:52:46;;;;;;;32.30;13.50;;;;;;;2.56;100.00;101534.97;4989090;28;20117;-66
2022/01/11 05:55:12;;;;;;;40.05;14.13;;;;;;;2.61;100.00;101548.19;4989322;28;20105;-66
2022/01/11 05:57:41;;;;;;;26.35;11.85;;;;;;;2.72;100.00;101561.59;4989104;28;20030;-66
2022/01/11 06:00:11;;;;;;;35.00;13.63;;;;;;;2.67;100.00;101551.84;4988172;28;20034;-66
2022/01/11 06:02:37;;;;;;;34.35;13.27;;;;;;;2.66;100.00;101547.47;4989286;28;20022;-67
2022/01/11 06:05:03;;;;;;;33.40;14.18;;;;;;;2.82;100.00;101569.72;4988951;28;20065;-68
2022/01/11 06:07:29;;;;;;;23.58;11.18;;;;;;;2.67;100.00;101562.38;4991513;28;20043;-68
2022/01/11 06:09:54;;;;;;;22.17;12.25;;;;;;;2.72;100.00;101566.84;4991414;28;20041;-68
2022/01/11 06:12:20;;;;;;;36.08;13.73;;;;;;;2.68;100.00;101573.75;4992771;28;20034;-68
2022/01/11 06:14:45;;;;;;;28.35;13.95;;;;;;;2.69;100.00;101572.91;4992179;28;20049;-69
2022/01/11 06:17:10;;;;;;;34.55;13.38;;;;;;;2.72;100.00;101572.09;4992325;28;20146;-68
2022/01/11 06:19:36;;;;;;;32.97;13.27;;;;;;;2.73;100.00;101575.63;4991794;28;20030;-67
2022/01/11 06:22:02;;;;;;;29.80;13.60;;;;;;;2.72;100.00;101579.13;4991652;28;20398;-68
2022/01/11 06:24:27;;;;;;;32.50;14.07;;;;;;;2.71;100.00;101573.84;4992629;28;20430;-67
2022/01/11 06:26:53;;;;;;;26.50;13.07;;;;;;;2.73;100.00;101580.03;4991734;28;20030;-67
2022/01/11 06:29:24;;;;;;;34.85;14.45;;;;;;;2.78;100.00;101585.38;4973894;28;20029;-67
2022/01/11 06:31:50;;;;;;;40.90;15.20;;;;;;;2.72;100.00;101577.34;4956708;28;20023;-67
2022/01/11 06:34:15;;;;;;;32.45;12.95;;;;;;;2.76;100.00;101580.09;4992155;28;20034;-67
2022/01/11 06:36:40;;;;;;;35.28;12.07;;;;;;;2.72;100.00;101584.38;4991593;28;20101;-67
2022/01/11 06:39:06;;;;;;;37.25;14.82;;;;;;;2.75;100.00;101582.69;4991188;28;20026;-67
2022/01/11 06:41:31;;;;;;;27.08;13.75;;;;;;;2.78;100.00;101593.25;4990960;28;20026;-67
2022/01/11 06:43:57;;;;;;;32.28;12.95;;;;;;;2.82;100.00;101584.59;4974097;28;20022;-67
2022/01/11 06:46:23;;;;;;;34.60;13.95;;;;;;;2.80;100.00;101588.94;4991182;28;20164;-67
2022/01/11 06:48:51;;;;;;;35.65;15.27;;;;;;;2.80;100.00;101599.44;4991320;28;20023;-67
2022/01/11 06:51:17;;;;;;;41.50;15.98;;;;;;;2.69;100.00;101589.56;4974337;28;20437;-67
2022/01/11 06:53:42;;;;;;;31.77;15.60;;;;;;;2.77;100.00;101602.00;4991097;28;20026;-67
2022/01/11 06:56:08;;;;;;;32.17;13.40;;;;;;;2.80;100.00;101615.22;4974242;28;20505;-67
2022/01/11 06:58:33;;;;;;;33.85;13.95;;;;;;;2.79;100.00;101600.28;4991511;28;20576;-67
2022/01/11 07:00:59;;;;;;;29.25;13.13;;;;;;;2.79;100.00;101603.78;4991127;28;20478;-67
2022/01/11 07:03:24;;;;;;;28.52;12.85;;;;;;;2.72;100.00;101594.88;4991036;28;20022;-67
2022/01/11 07:05:50;;;;;;;35.22;13.35;;;;;;;2.72;100.00;101597.50;4973425;28;20042;-67
2022/01/11 07:08:15;;;;;;;31.15;14.32;;;;;;;2.71;100.00;101584.34;4991197;28;20046;-66
2022/01/11 07:10:41;;;;;;;28.92;14.23;;;;;;;2.83;100.00;101610.91;4990870;28;20118;-66
2022/01/11 07:13:07;;;;;;;39.53;16.23;;;;;;;2.90;100.00;101609.31;4991640;28;20030;-66
2022/01/11 07:15:32;;;;;;;37.75;15.52;;;;;;;2.93;100.00;101612.00;4990047;28;20117;-66
2022/01/11 07:17:58;;;;;;;37.30;14.30;;;;;;;2.94;100.00;101614.69;4989525;28;20161;-66
2022/01/11 07:20:24;;;;;;;40.20;15.05;;;;;;;2.89;100.00;101600.53;4989896;28;20398;-66
2022/01/11 07:22:49;;;;;;;37.15;15.02;;;;;;;2.94;100.00;101617.31;4990569;28;20022;-66
2022/01/11 07:25:15;;;;;;;34.05;15.40;;;;;;;2.90;100.00;101619.84;4991638;28;20109;-66
2022/01/11 07:27:41;;;;;;;37.30;14.88;;;;;;;3.01;100.00;101632.38;4990628;28;20149;-66
2022/01/11 07:30:08;;;;;;;30.88;14.85;;;;;;;3.01;100.00;101627.13;4990432;28;20026;-66
2022/01/11 07:32:35;;;;;;;33.58;16.00;;;;;;;2.98;100.00;101603.41;4989893;28;20022;-66
2022/01/11 07:35:02;;;;;;;31.95;13.85;;;;;;;3.07;100.00;101626.34;4990591;28;20105;-66
2022/01/11 07:37:27;;;;;;;31.25;16.23;;;;;;;3.04;100.00;101631.53;4989421;28;20418;-66
2022/01/11 07:39:53;;;;;;;34.50;14.07;;;;;;;3.01;100.00;101634.09;4989886;28;20026;-66
2022/01/11 07:42:18;;;;;;;31.88;16.13;;;;;;;3.02;100.00;101630.59;4990371;28;20458;-66
2022/01/11 07:44:45;;;;;;;33.85;14.98;;;;;;;3.05;100.00;101630.72;4990779;28;20034;-66
2022/01/11 07:47:10;;;;;;;31.10;15.18;;;;;;;3.10;100.00;101642.22;4972932;28;20521;-66
2022/01/11 07:49:36;;;;;;;33.40;14.00;;;;;;;3.02;100.00;101627.97;4989560;28;20034;-66
2022/01/11 07:52:02;;;;;;;23.33;12.55;;;;;;;3.13;100.00;101631.78;4990276;28;20437;-67
2022/01/11 07:54:27;;;;;;;32.05;14.48;;;;;;;3.26;100.00;101644.34;4972855;28;20395;-67
2022/01/11 07:56:53;;;;;;;32.92;13.05;;;;;;;3.31;100.00;101647.97;4990460;28;20034;-67
2022/01/11 07:59:18;;;;;;;29.40;12.95;;;;;;;3.28;100.00;101655.78;4989679;28;20379;-66
2022/01/11 08:01:44;;;;;;;30.52;12.80;;;;;;;3.22;100.00;101655.63;4990115;28;20076;-66
2022/01/11 08:04:09;;;;;;;26.35;12.63;;;;;;;3.17;100.00;101649.38;4990121;28;20022;-67
2022/01/11 08:06:34;;;;;;;25.73;14.48;;;;;;;3.20;100.00;101647.69;4989635;28;20066;-67
2022/01/11 08:09:01;;;;;;;28.15;11.85;;;;;;;3.32;100.00;101665.50;4990052;28;20096;-67
2022/01/11 08:11:27;;;;;;;38.88;14.00;;;;;;;3.39;100.00;101665.69;4990068;28;20054;-67
2022/01/11 08:13:52;;;;;;;35.05;15.73;;;;;;;3.43;100.00;101664.88;4989726;28;20097;-68
2022/01/11 08:16:18;;;;;;;31.52;15.13;;;;;;;3.49;100.00;101666.78;4972504;28;20566;-68
2022/01/11 08:18:43;;;;;;;36.35;18.52;;;;;;;3.52;100.00;101667.75;4990065;28;20026;-68
2022/01/11 08:21:08;;;;;;;32.78;16.48;;;;;;;3.54;100.00;101665.13;4972712;28;20053;-67
2022/01/11 08:23:34;;;;;;;34.67;15.90;;;;;;;3.60;100.00;101660.00;4987773;28;20038;-68
2022/01/11 08:26:00;;;;;;;38.42;15.88;;;;;;;3.69;100.00;101676.84;4989136;28;20026;-68
2022/01/11 08:28:25;;;;;;;37.42;16.60;;;;;;;3.71;100.00;101675.16;4971974;28;20030;-68
2022/01/11 08:30:52;;;;;;;29.58;15.35;;;;;;;3.77;100.00;101666.53;4989444;28;20478;-68
2022/01/11 08:33:17;;;;;;;29.02;12.65;;;;;;;3.84;100.00;101666.66;4988303;28;20482;-68
2022/01/11 08:35:43;;;;;;;21.88;11.73;;;;;;;3.92;100.00;101667.69;4989780;28;20053;-66
2022/01/11 08:38:09;;;;;;;25.98;11.32;;;;;;;3.94;100.00;101662.47;4989781;28;20034;-67
2022/01/11 08:40:34;;;;;;;27.02;12.85;;;;;;;3.96;100.00;101666.03;4955380;28;20022;-67
2022/01/11 08:43:03;;;;;;;29.88;13.70;;;;;;;4.09;100.00;101668.03;4989021;28;20030;-67
2022/01/11 08:45:28;;;;;;;27.48;13.80;;;;;;;4.06;100.00;101660.09;4989602;28;20030;-67
2022/01/11 08:47:54;;;;;;;30.10;14.65;;;;;;;4.15;100.00;101662.91;4989306;28;20037;-67
2022/01/11 08:50:19;;;;;;;32.05;15.23;;;;;;;4.31;100.00;101659.72;4989004;28;20014;-67
2022/01/11 08:52:45;;;;;;;36.17;13.68;;;;;;;4.34;100.00;101653.59;4989111;28;20057;-67
2022/01/11 08:55:11;;;;;;;28.13;13.13;;;;;;;4.52;100.00;101665.38;4989691;28;20077;-68
2022/01/11 08:57:37;;;;;;;28.33;12.77;;;;;;;4.82;100.00;101663.28;4972249;28;20030;-66
2022/01/11 09:00:09;;;;;;;37.00;14.45;;;;;;;5.62;100.00;101658.34;4988458;28;20030;-66
2022/01/11 09:02:37;;;;;;;35.13;16.73;;;;;;;6.22;100.00;101659.13;4989064;28;20492;-67
2022/01/11 09:05:03;;;;;;;34.08;14.95;;;;;;;6.39;100.00;101652.25;4989475;28;20030;-67
2022/01/11 09:07:28;;;;;;;42.70;17.02;;;;;;;6.32;100.00;101648.66;4988792;28;20137;-67
2022/01/11 09:09:54;;;;;;;27.20;13.00;;;;;;;6.17;100.00;101655.53;4989010;28;20030;-67
2022/01/11 09:12:19;;;;;;;27.52;13.20;;;;;;;6.02;100.00;101658.00;4989153;28;20022;-67
2022/01/11 09:14:45;;;;;;;30.25;13.48;;;;;;;5.78;100.00;101647.09;4988947;28;20058;-67
2022/01/11 09:17:12;;;;;;;29.85;12.55;;;;;;;6.22;100.00;101664.41;4988572;28;20492;-67
2022/01/11 09:19:38;;;;;;;22.98;13.57;;;;;;;6.96;100.00;101657.19;4986857;28;20022;-67
2022/01/11 09:22:04;;;;;;;28.23;14.85;;;;;;;8.10;100.00;101647.28;4989232;28;20026;-66
2022/01/11 09:24:29;;;;;;;38.45;15.23;;;;;;;8.43;95.53;101651.81;4987465;28;20026;-66
2022/01/11 09:26:58;;;;;;;25.92;12.77;;;;;;;8.01;89.73;101658.72;4989777;28;20057;-66
2022/01/11 09:29:24;;;;;;;26.95;12.20;;;;;;;7.74;90.26;101644.47;4970295;28;20458;-67
2022/01/11 09:31:49;;;;;;;21.95;12.35;;;;;;;7.45;90.06;101665.50;4989232;28;20033;-67
2022/01/11 09:34:15;;;;;;;21.98;12.88;;;;;;;7.20;92.23;101655.59;4989170;28;20030;-67
2022/01/11 09:36:41;;;;;;;26.13;12.30;;;;;;;7.33;92.94;101660.09;4989301;28;20097;-67
2022/01/11 09:39:07;;;;;;;18.45;10.45;;;;;;;7.31;92.85;101656.59;4988801;28;20053;-67
2022/01/11 09:41:34;;;;;;;24.00;11.88;;;;;;;7.37;92.50;101663.66;4989304;28;20070;-67
2022/01/11 09:44:00;;;;;;;25.05;11.77;;;;;;;7.37;92.77;101666.31;4992926;28;20026;-67
2022/01/11 09:46:26;;;;;;;25.38;12.07;;;;;;;7.53;92.82;101663.78;4992982;28;20358;-67
2022/01/11 09:48:52;;;;;;;23.15;11.30;;;;;;;7.62;93.64;101653.25;4974443;28;20124;-67
2022/01/11 09:51:17;;;;;;;23.52;11.55;;;;;;;7.79;92.12;101664.78;4993012;28;20072;-67
2022/01/11 09:53:42;;;;;;;22.25;11.60;;;;;;;7.97;93.48;101670.16;4992761;28;20026;-67
2022/01/11 09:56:09;;;;;;;22.40;12.18;;;;;;;8.94;95.59;101670.44;4992838;28;20026;-67
2022/01/11 09:58:35;;;;;;;22.27;11.90;;;;;;;10.38;90.06;101667.44;4992021;28;20037;-67
2022/01/11 10:01:02;;;;;;;23.08;10.88;;;;;;;10.84;81.02;101672.47;4991955;28;20463;-67
2022/01/11 10:03:27;;;;;;;21.02;11.45;;;;;;;11.87;75.60;101673.28;4975130;28;20098;-68
2022/01/11 10:05:53;;;;;;;21.52;10.02;;;;;;;12.23;70.45;101662.16;4975148;28;20422;-67
2022/01/11 10:08:19;;;;;;;18.77;9.80;;;;;;;11.72;69.88;101670.78;4992211;28;20414;-68
2022/01/11 10:10:49;;;;;;;17.88;11.13;;;;;;;10.73;69.44;101679.63;4991891;28;20034;-67
2022/01/11 10:13:30;;;;;;;20.35;10.02;;;;;;;10.24;73.45;101682.59;4992017;28;20502;-67
2022/01/11 10:15:56;;;;;;;19.80;9.63;;;;;;;9.92;76.14;101692.41;4992306;28;20062;-67
2022/01/11 10:18:36;;;;;;;18.27;10.15;;;;;;;9.45;78.00;101680.13;4991992;28;20358;-67
2022/01/11 10:21:39;;;;;;;17.50;9.02;;;;;;;9.23;79.37;101687.25;4990667;28;20034;-67
2022/01/11 10:24:22;;;;;;;17.33;8.75;;;;;;;8.83;81.72;101685.50;4991607;28;20387;-67
2022/01/11 10:26:48;;;;;;;;;;;;;;;8.62;82.70;101682.78;4992768;28;20431;-67
2022/01/11 10:29:27;;;;;;;16.58;9.02;;;;;;;8.30;85.14;101692.44;4973715;28;20027;-67
2022/01/11 10:31:53;;;;;;;21.92;10.20;;;;;;;8.09;86.58;101671.13;4991938;28;20497;-67
2022/01/11 10:34:28;;;;;;;21.85;10.18;;;;;;;8.10;87.68;101676.44;4991886;28;20029;-67
2022/01/11 10:36:53;;;;;;;23.52;9.95;;;;;;;8.15;89.36;101673.78;4991829;28;20072;-67
2022/01/11 10:39:33;;;;;;;17.02;9.77;;;;;;;8.17;88.85;101674.69;4990387;28;20030;-67
2022/01/11 10:42:00;;;;;;;19.33;9.45;;;;;;;7.95;89.20;101669.31;4954807;28;20027;-67
2022/01/11 10:44:41;;;;;;;22.85;9.82;;;;;;;7.97;90.12;101664.88;4972266;28;20069;-67
2022/01/11 10:47:07;;;;;;;18.17;10.90;;;;;;;7.87;89.81;101660.41;4971420;28;20030;-67
2022/01/11 10:49:35;;;;;;;21.75;9.63;;;;;;;7.72;89.25;101668.31;4984015;28;20504;-67
2022/01/11 10:52:19;;;;;;;21.58;9.80;;;;;;;7.65;91.13;101673.53;4991375;28;20101;-67
2022/01/11 10:54:45;;;;;;;23.40;10.13;;;;;;;7.81;92.20;101672.75;4991376;28;20037;-67
2022/01/11 10:57:18;;;;;;;23.45;10.55;;;;;;;7.76;91.82;101672.72;4992149;28;20030;-67
2022/01/11 10:59:44;;;;;;;24.85;10.68;;;;;;;7.80;92.40;101658.63;4990937;28;20033;-67
2022/01/11 11:02:23;;;;;;;24.13;10.55;;;;;;;7.86;91.93;101676.31;4991941;28;20700;-68
2022/01/11 11:04:49;;;;;;;20.77;10.40;;;;;;;7.70;92.75;101682.41;4991499;28;20038;-68
2022/01/11 11:07:15;;;;;;;18.88;10.40;;;;;;;7.59;93.58;101677.06;4960921;28;20066;-68
2022/01/11 11:09:52;;;;;;;21.00;10.32;;;;;;;7.68;93.34;101679.75;4952578;29;20112;-68
2022/01/11 11:12:22;;;;;;;22.23;11.65;;;;;;;7.69;93.40;101678.00;4952425;29;20023;-67